createdAt,value
2019-02-23T00:01:26.951Z,30.77
2019-02-23T00:03:55.747Z,31.50
2019-02-23T00:06:29.842Z,32.13
2019-02-23T00:08:54.947Z,30.90
2019-02-23T00:11:25.380Z,32.07
2019-02-23T00:13:56.171Z,32.17
2019-02-23T00:16:25.389Z,31.27
2019-02-23T00:18:53.762Z,30.87
2019-02-23T00:21:22.904Z,31.27
2019-02-23T00:26:38.775Z,31.60
2019-02-23T00:29:07.496Z,30.60
2019-02-23T00:31:36.021Z,31.60
2019-02-23T00:34:04.725Z,31.43
2019-02-23T00:36:34.014Z,33.67
2019-02-23T00:39:02.795Z,32.63
2019-02-23T00:41:31.240Z,33.50
2019-02-23T00:43:59.671Z,33.13
2019-02-23T00:46:28.654Z,33.87
2019-02-23T00:48:57.359Z,32.93
2019-02-23T00:51:25.897Z,32.57
2019-02-23T00:53:54.406Z,34.03
2019-02-23T00:56:22.874Z,33.97
2019-02-23T00:58:51.574Z,34.60
2019-02-23T01:01:20.256Z,35.70
2019-02-23T01:03:49.260Z,32.70
2019-02-23T01:06:18.125Z,34.00
2019-02-23T01:08:46.681Z,32.80
2019-02-23T01:11:15.094Z,33.83
2019-02-23T01:13:43.705Z,33.63
2019-02-23T01:16:12.330Z,34.53
2019-02-23T01:18:41.116Z,33.93
2019-02-23T01:21:09.813Z,34.23
2019-02-23T01:23:38.522Z,34.37
2019-02-23T01:26:07.144Z,33.60
2019-02-23T01:28:35.750Z,33.53
2019-02-23T01:31:04.397Z,34.63
2019-02-23T01:33:33.043Z,35.23
2019-02-23T01:36:02.003Z,32.77
2019-02-23T01:38:30.561Z,33.50
2019-02-23T01:40:59.078Z,34.60
2019-02-23T01:43:27.760Z,34.07
2019-02-23T01:45:56.378Z,34.20
2019-02-23T01:48:24.956Z,34.03
2019-02-23T01:50:53.592Z,33.50
2019-02-23T01:53:22.102Z,34.03
2019-02-23T01:55:57.573Z,34.30
2019-02-23T01:58:26.100Z,33.93
2019-02-23T02:00:54.736Z,34.60
2019-02-23T02:03:23.639Z,34.70
2019-02-23T02:05:52.288Z,35.10
2019-02-23T02:08:20.871Z,33.47
2019-02-23T02:10:49.388Z,34.47
2019-02-23T02:13:17.915Z,34.33
2019-02-23T02:15:46.545Z,34.83
2019-02-23T02:18:15.101Z,34.57
2019-02-23T02:20:43.570Z,35.27
2019-02-23T02:23:12.023Z,35.77
2019-02-23T02:25:40.485Z,34.63
2019-02-23T02:28:09.086Z,34.20
2019-02-23T02:30:37.508Z,35.03
2019-02-23T02:33:05.990Z,35.27
2019-02-23T02:35:34.641Z,33.93
2019-02-23T02:38:03.331Z,34.67
2019-02-23T02:40:31.990Z,35.27
2019-02-23T02:43:00.689Z,34.77
2019-02-23T02:45:29.319Z,34.37
2019-02-23T02:47:57.867Z,34.93
2019-02-23T02:50:26.419Z,34.43
2019-02-23T02:52:55.120Z,35.00
2019-02-23T02:55:23.610Z,34.57
2019-02-23T02:57:52.277Z,34.00
2019-02-23T03:00:20.742Z,34.70
2019-02-23T03:02:50.148Z,34.97
2019-02-23T03:05:19.006Z,34.10
2019-02-23T03:07:47.820Z,35.40
2019-02-23T03:10:16.508Z,34.50
2019-02-23T03:12:45.129Z,33.80
2019-02-23T03:15:13.717Z,34.73
2019-02-23T03:17:42.300Z,35.97
2019-02-23T03:20:10.880Z,35.23
2019-02-23T03:22:39.468Z,33.10
2019-02-23T03:25:08.243Z,35.13
2019-02-23T03:27:36.963Z,34.70
2019-02-23T03:30:06.057Z,34.50
2019-02-23T03:32:34.789Z,33.03
2019-02-23T03:35:03.422Z,33.97
2019-02-23T03:37:31.940Z,34.43
2019-02-23T03:40:00.578Z,35.00
2019-02-23T03:42:29.426Z,35.33
2019-02-23T03:44:57.977Z,35.43
2019-02-23T03:47:26.639Z,36.47
2019-02-23T03:49:55.607Z,35.23
2019-02-23T03:52:24.066Z,35.53
2019-02-23T03:54:53.642Z,34.33
2019-02-23T03:57:22.326Z,34.90
2019-02-23T03:59:51.112Z,35.07
2019-02-23T04:02:19.603Z,34.47
2019-02-23T04:04:48.178Z,35.73
2019-02-23T04:07:16.732Z,34.40
2019-02-23T04:09:45.293Z,35.10
2019-02-23T04:12:13.819Z,34.30
2019-02-23T04:14:42.332Z,34.67
2019-02-23T04:17:10.853Z,34.60
2019-02-23T04:19:39.350Z,34.10
2019-02-23T04:22:07.807Z,35.60
2019-02-23T04:24:36.441Z,34.80
2019-02-23T04:27:05.064Z,33.77
2019-02-23T04:29:33.455Z,35.27
2019-02-23T04:32:02.090Z,34.63
2019-02-23T04:34:30.708Z,35.40
2019-02-23T04:36:59.286Z,33.77
2019-02-23T04:39:27.808Z,34.43
2019-02-23T04:41:56.326Z,33.30
2019-02-23T04:44:24.800Z,35.30
2019-02-23T04:46:53.293Z,35.07
2019-02-23T04:49:21.748Z,36.17
2019-02-23T04:51:50.157Z,35.17
2019-02-23T04:54:18.669Z,33.73
2019-02-23T04:56:47.199Z,33.70
2019-02-23T04:59:15.905Z,36.17
2019-02-23T05:01:44.446Z,34.23
2019-02-23T05:04:12.898Z,33.53
2019-02-23T05:06:42.164Z,35.10
2019-02-23T05:09:10.915Z,35.33
2019-02-23T05:11:39.430Z,33.87
2019-02-23T05:14:07.981Z,34.63
2019-02-23T05:16:36.491Z,34.83
2019-02-23T05:19:05.072Z,34.53
2019-02-23T05:21:34.369Z,34.90
2019-02-23T05:24:02.823Z,34.67
2019-02-23T05:26:31.372Z,33.97
2019-02-23T05:28:59.813Z,34.43
2019-02-23T05:31:29.226Z,33.77
2019-02-23T05:33:57.742Z,34.37
2019-02-23T05:36:26.327Z,34.20
2019-02-23T05:38:54.788Z,34.37
2019-02-23T05:41:23.253Z,35.57
2019-02-23T05:43:51.687Z,35.97
2019-02-23T05:46:20.080Z,34.23
2019-02-23T05:48:48.478Z,33.70
2019-02-23T05:51:17.270Z,34.37
2019-02-23T05:53:45.878Z,34.30
2019-02-23T05:56:16.312Z,34.40
2019-02-23T05:58:44.729Z,35.67
2019-02-23T06:01:13.284Z,34.57
2019-02-23T06:03:41.809Z,35.40
2019-02-23T06:06:10.213Z,34.70
2019-02-23T06:08:38.837Z,35.27
2019-02-23T06:11:10.343Z,33.63
2019-02-23T06:13:38.877Z,34.27
2019-02-23T06:16:08.997Z,34.43
2019-02-23T06:18:37.497Z,35.30
2019-02-23T06:21:06.018Z,34.73
2019-02-23T06:23:36.183Z,35.50
2019-02-23T06:26:04.686Z,35.00
2019-02-23T06:28:33.320Z,34.13
2019-02-23T06:31:01.886Z,34.77
2019-02-23T06:33:30.585Z,36.00
2019-02-23T06:35:59.102Z,34.37
2019-02-23T06:38:27.587Z,35.23
2019-02-23T06:40:59.548Z,34.53
2019-02-23T06:43:28.160Z,35.43
2019-02-23T06:45:56.778Z,35.33
2019-02-23T06:48:25.389Z,34.77
2019-02-23T06:50:54.051Z,34.73
2019-02-23T06:53:22.657Z,34.23
2019-02-23T06:55:51.112Z,36.03
2019-02-23T06:58:19.730Z,33.63
2019-02-23T07:00:55.728Z,34.47
2019-02-23T07:03:49.854Z,35.03
2019-02-23T07:06:18.517Z,34.43
2019-02-23T07:08:47.751Z,35.63
2019-02-23T07:11:17.536Z,34.33
2019-02-23T07:13:47.915Z,36.30
2019-02-23T07:16:16.394Z,33.93
2019-02-23T07:18:44.800Z,33.73
2019-02-23T07:21:13.234Z,34.67
2019-02-23T07:23:41.656Z,35.00
2019-02-23T07:26:10.191Z,34.13
2019-02-23T07:28:39.866Z,34.70
2019-02-23T07:31:11.938Z,35.07
2019-02-23T07:33:40.452Z,34.37
2019-02-23T07:36:10.415Z,33.60
2019-02-23T07:38:38.875Z,34.40
2019-02-23T07:41:07.515Z,33.13
2019-02-23T07:43:36.019Z,33.30
2019-02-23T07:46:04.588Z,33.47
2019-02-23T07:48:33.253Z,33.13
2019-02-23T07:51:01.953Z,33.00
2019-02-23T07:53:30.392Z,32.90
2019-02-23T07:55:58.950Z,32.33
2019-02-23T07:58:27.479Z,31.93
2019-02-23T08:00:56.025Z,31.10
2019-02-23T08:03:24.509Z,32.67
2019-02-23T08:05:53.026Z,31.47
2019-02-23T08:08:21.409Z,30.97
2019-02-23T08:10:49.883Z,29.00
2019-02-23T08:13:18.651Z,29.20
2019-02-23T08:15:48.143Z,30.80
2019-02-23T08:18:16.645Z,29.43
2019-02-23T08:20:45.128Z,29.17
2019-02-23T08:23:14.371Z,28.83
2019-02-23T08:25:43.129Z,29.60
2019-02-23T08:28:11.574Z,29.50
2019-02-23T08:30:40.277Z,29.23
2019-02-23T08:33:08.962Z,29.20
2019-02-23T08:35:37.414Z,28.60
2019-02-23T08:38:06.259Z,29.20
2019-02-23T08:40:35.092Z,29.07
2019-02-23T08:43:03.606Z,29.73
2019-02-23T08:45:32.075Z,27.43
2019-02-23T08:48:05.044Z,28.60
2019-02-23T08:50:33.631Z,28.07
2019-02-23T08:53:02.480Z,26.47
2019-02-23T08:55:31.064Z,29.27
2019-02-23T08:57:59.816Z,28.97
2019-02-23T09:00:28.593Z,32.83
2019-02-23T09:02:57.158Z,39.10
2019-02-23T09:05:26.682Z,30.03
2019-02-23T09:07:55.554Z,26.40
2019-02-23T09:10:24.267Z,25.73
2019-02-23T09:12:52.802Z,26.50
2019-02-23T09:15:22.471Z,26.20
2019-02-23T09:17:51.075Z,26.13
2019-02-23T09:20:28.571Z,27.60
2019-02-23T09:22:59.685Z,26.73
2019-02-23T09:25:23.215Z,26.23
2019-02-23T09:27:52.025Z,26.97
2019-02-23T09:30:20.867Z,25.60
2019-02-23T09:32:49.413Z,25.57
2019-02-23T09:35:18.162Z,24.93
2019-02-23T09:37:47.218Z,24.43
2019-02-23T09:40:15.860Z,25.33
2019-02-23T09:42:44.451Z,25.93
2019-02-23T09:45:13.029Z,24.00
2019-02-23T09:47:41.864Z,24.70
2019-02-23T09:50:10.352Z,24.27
2019-02-23T09:52:39.176Z,24.57
2019-02-23T09:55:08.288Z,25.63
2019-02-23T09:57:36.882Z,24.30
2019-02-23T10:00:07.948Z,23.63
2019-02-23T10:02:36.999Z,23.37
2019-02-23T10:05:06.779Z,22.20
2019-02-23T10:07:35.947Z,23.70
2019-02-23T10:10:04.844Z,23.83
2019-02-23T10:12:33.406Z,22.93
2019-02-23T10:15:02.437Z,23.37
2019-02-23T10:17:31.027Z,22.87
2019-02-23T10:19:59.631Z,24.00
2019-02-23T10:22:28.519Z,23.13
2019-02-23T10:24:57.082Z,22.83
2019-02-23T10:27:25.700Z,22.20
2019-02-23T10:29:54.268Z,22.37
2019-02-23T10:32:24.185Z,22.63
2019-02-23T10:34:52.785Z,23.30
2019-02-23T10:37:21.377Z,21.13
2019-02-23T10:39:50.321Z,21.27
2019-02-23T10:42:19.082Z,21.90
2019-02-23T10:44:47.823Z,20.63
2019-02-23T10:47:16.697Z,20.67
2019-02-23T10:49:47.444Z,20.50
2019-02-23T10:52:16.187Z,20.00
2019-02-23T10:54:47.145Z,21.03
2019-02-23T10:57:15.164Z,20.30
2019-02-23T10:59:43.827Z,19.80
2019-02-23T11:02:12.686Z,20.00
2019-02-23T11:04:41.342Z,19.77
2019-02-23T11:07:10.226Z,20.00
2019-02-23T11:09:42.628Z,19.73
2019-02-23T11:12:12.041Z,19.13
2019-02-23T11:14:48.178Z,19.13
2019-02-23T11:17:16.835Z,19.33
2019-02-23T11:19:46.241Z,19.63
2019-02-23T11:22:15.381Z,19.07
2019-02-23T11:24:43.851Z,18.80
2019-02-23T11:27:14.298Z,17.67
2019-02-23T11:29:43.991Z,18.67
2019-02-23T11:32:14.556Z,19.33
2019-02-23T11:34:46.581Z,18.70
2019-02-23T11:37:15.588Z,18.63
2019-02-23T11:39:44.700Z,18.13
2019-02-23T11:42:16.938Z,18.93
2019-02-23T11:44:45.435Z,18.93
2019-02-23T11:47:15.623Z,18.50
2019-02-23T11:49:44.773Z,18.50
2019-02-23T11:52:14.581Z,19.10
2019-02-23T11:54:44.166Z,18.40
2019-02-23T11:57:13.742Z,17.73
2019-02-23T11:59:42.221Z,18.53
2019-02-23T12:02:10.871Z,17.60
2019-02-23T12:04:43.036Z,18.87
2019-02-23T12:07:13.025Z,17.47
2019-02-23T12:09:41.815Z,18.53
2019-02-23T12:12:11.016Z,18.43
2019-02-23T12:14:39.585Z,17.67
2019-02-23T12:17:08.516Z,17.27
2019-02-23T12:19:37.343Z,18.77
2019-02-23T12:22:14.880Z,17.63
2019-02-23T12:24:43.658Z,18.33
2019-02-23T12:27:37.980Z,17.87
2019-02-23T12:32:53.312Z,16.67
2019-02-23T12:35:25.789Z,16.13
2019-02-23T12:37:58.592Z,16.17
2019-02-23T12:40:30.367Z,16.83
2019-02-23T12:43:12.282Z,15.77
2019-02-23T12:45:55.140Z,15.47
2019-02-23T12:48:33.535Z,14.10
2019-02-23T12:51:04.156Z,15.77
2019-02-23T12:53:33.188Z,15.27
2019-02-23T12:56:05.278Z,14.97
2019-02-23T12:58:54.930Z,14.87
2019-02-23T13:01:27.127Z,14.80
2019-02-23T13:04:10.602Z,14.67
2019-02-23T13:06:52.931Z,13.93
2019-02-23T13:09:34.117Z,15.03
2019-02-23T13:12:29.503Z,14.17
2019-02-23T13:15:44.040Z,13.50
2019-02-23T13:18:35.482Z,13.90
2019-02-23T13:21:38.011Z,15.40
2019-02-23T13:24:41.057Z,15.47
2019-02-23T13:27:20.120Z,19.40
2019-02-23T13:29:59.875Z,37.73
2019-02-23T13:33:03.541Z,22.80
2019-02-23T13:35:51.913Z,14.50
2019-02-23T13:38:28.672Z,13.77
2019-02-23T13:41:08.123Z,13.97
2019-02-23T13:44:04.744Z,13.70
2019-02-23T13:47:01.383Z,13.80
2019-02-23T13:49:41.460Z,13.70
2019-02-23T13:52:28.464Z,14.37
2019-02-23T13:55:05.208Z,13.80
2019-02-23T13:57:53.117Z,13.93
2019-02-23T14:00:26.631Z,14.17
2019-02-23T14:03:11.473Z,12.93
2019-02-23T14:05:45.967Z,13.70
2019-02-23T14:08:40.001Z,13.90
2019-02-23T14:11:30.617Z,13.17
2019-02-23T14:14:11.846Z,13.87
2019-02-23T14:16:43.818Z,14.70
2019-02-23T14:19:15.392Z,14.20
2019-02-23T14:22:01.696Z,13.80
2019-02-23T14:28:15.971Z,13.57
2019-02-23T14:31:08.988Z,13.63
2019-02-23T14:33:56.373Z,14.00
2019-02-23T14:36:37.332Z,14.17
2019-02-23T14:39:28.835Z,14.37
2019-02-23T14:42:00.557Z,13.60
2019-02-23T14:44:51.422Z,13.47
2019-02-23T14:47:26.863Z,14.10
2019-02-23T14:50:04.836Z,14.47
2019-02-23T14:52:46.185Z,14.37
2019-02-23T14:55:17.486Z,15.20
2019-02-23T14:57:50.889Z,15.07
2019-02-23T15:00:24.453Z,15.00
2019-02-23T15:03:30.450Z,15.20
2019-02-23T15:06:02.214Z,15.47
2019-02-23T15:08:53.011Z,15.30
2019-02-23T15:11:46.735Z,15.50
2019-02-23T15:14:40.796Z,16.03
2019-02-23T15:17:43.856Z,16.00
2019-02-23T15:20:25.194Z,16.23
2019-02-23T15:23:28.396Z,16.30
2019-02-23T15:26:09.817Z,15.90
2019-02-23T15:28:57.218Z,16.20
2019-02-23T15:31:54.096Z,16.03
2019-02-23T15:34:27.217Z,17.37
2019-02-23T15:37:13.438Z,16.80
2019-02-23T15:40:04.214Z,15.90
2019-02-23T15:42:52.096Z,16.73
2019-02-23T15:45:25.674Z,16.83
2019-02-23T15:48:04.915Z,16.57
2019-02-23T15:50:34.157Z,17.67
2019-02-23T15:53:02.896Z,17.47
2019-02-23T15:55:31.776Z,16.30
2019-02-23T15:58:00.399Z,17.60
2019-02-23T16:00:28.891Z,18.57
2019-02-23T16:02:57.557Z,18.73
2019-02-23T16:05:26.277Z,19.17
2019-02-23T16:07:55.174Z,19.93
2019-02-23T16:10:24.939Z,18.97
2019-02-23T16:12:55.934Z,20.07
2019-02-23T16:15:30.587Z,20.13
2019-02-23T16:17:59.765Z,19.90
2019-02-23T16:20:28.483Z,19.57
2019-02-23T16:22:57.584Z,21.13
2019-02-23T16:25:37.778Z,20.07
2019-02-23T16:27:56.771Z,20.27
2019-02-23T16:30:25.640Z,19.37
2019-02-23T16:32:54.287Z,21.00
2019-02-23T16:35:22.921Z,20.77
2019-02-23T16:37:51.641Z,19.43
2019-02-23T16:40:20.155Z,20.77
2019-02-23T16:42:48.801Z,20.70
2019-02-23T16:45:17.659Z,21.17
2019-02-23T16:47:46.240Z,20.57
2019-02-23T16:54:22.211Z,19.30
2019-02-23T16:56:23.399Z,21.33
2019-02-23T16:58:51.910Z,21.57
2019-02-23T17:01:20.461Z,19.27
2019-02-23T17:03:48.987Z,18.77
2019-02-23T17:06:17.698Z,18.90
2019-02-23T17:08:46.665Z,19.07
2019-02-23T17:11:15.280Z,18.53
2019-02-23T17:13:43.965Z,18.67
2019-02-23T17:16:12.856Z,19.00
2019-02-23T17:18:41.569Z,17.83
2019-02-23T17:21:10.632Z,18.30
2019-02-23T17:23:41.514Z,19.10
2019-02-23T17:26:13.183Z,26.00
2019-02-23T17:28:41.780Z,37.57
2019-02-23T17:31:10.980Z,35.03
2019-02-23T17:33:39.679Z,21.07
2019-02-23T17:36:08.143Z,19.73
2019-02-23T17:38:36.940Z,18.80
2019-02-23T17:41:05.571Z,18.63
2019-02-23T17:43:34.219Z,18.67
2019-02-23T17:46:03.148Z,18.23
2019-02-23T17:48:33.930Z,17.97
2019-02-23T17:51:02.979Z,19.27
2019-02-23T17:53:31.856Z,18.47
2019-02-23T17:56:00.468Z,19.67
2019-02-23T17:58:29.184Z,19.83
2019-02-23T18:00:57.919Z,19.13
2019-02-23T18:03:26.714Z,18.33
2019-02-23T18:05:55.221Z,19.27
2019-02-23T18:08:23.803Z,19.83
2019-02-23T18:10:52.369Z,19.10
2019-02-23T18:13:21.051Z,18.57
2019-02-23T18:15:49.707Z,19.10
2019-02-23T18:18:18.337Z,18.63
2019-02-23T18:20:48.272Z,19.43
2019-02-23T18:23:16.970Z,18.50
2019-02-23T18:25:45.633Z,17.60
2019-02-23T18:28:14.300Z,18.67
2019-02-23T18:30:42.915Z,17.87
2019-02-23T18:33:11.578Z,18.20
2019-02-23T18:35:40.308Z,18.53
2019-02-23T18:38:08.908Z,19.03
2019-02-23T18:40:37.558Z,19.50
2019-02-23T18:43:06.771Z,17.87
2019-02-23T18:45:35.430Z,19.27
2019-02-23T18:48:04.115Z,20.30
2019-02-23T18:50:32.686Z,18.10
2019-02-23T18:53:01.297Z,19.67
2019-02-23T18:55:29.992Z,18.73
2019-02-23T18:57:58.640Z,18.77
2019-02-23T19:00:27.514Z,18.77
2019-02-23T19:02:55.926Z,18.43
2019-02-23T19:05:24.647Z,18.43
2019-02-23T19:07:53.488Z,17.97
2019-02-23T19:10:22.309Z,17.10
2019-02-23T19:12:52.426Z,17.83
2019-02-23T19:15:21.524Z,17.67
2019-02-23T19:17:50.036Z,18.30
2019-02-23T19:20:19.133Z,20.17
2019-02-23T19:22:47.924Z,18.03
2019-02-23T19:25:16.680Z,17.47
2019-02-23T19:27:49.380Z,18.23
2019-02-23T19:30:17.935Z,17.97
2019-02-23T19:32:48.672Z,17.00
2019-02-23T19:35:17.235Z,17.83
2019-02-23T19:37:46.007Z,17.67
2019-02-23T19:40:14.919Z,17.60
2019-02-23T19:42:43.923Z,17.17
2019-02-23T19:45:13.193Z,18.63
2019-02-23T19:47:42.000Z,17.57
2019-02-23T19:50:15.393Z,17.43
2019-02-23T19:52:44.340Z,17.87
2019-02-23T19:55:15.332Z,17.23
2019-02-23T19:57:44.378Z,17.57
2019-02-23T20:00:13.405Z,17.57
2019-02-23T20:02:42.343Z,17.50
2019-02-23T20:05:11.293Z,17.27
2019-02-23T20:07:40.013Z,18.00
2019-02-23T20:10:08.761Z,17.90
2019-02-23T20:12:37.448Z,18.50
2019-02-23T20:15:06.392Z,17.33
2019-02-23T20:17:35.289Z,17.90
2019-02-23T20:20:04.372Z,17.60
2019-02-23T20:22:33.037Z,18.07
2019-02-23T20:25:01.812Z,17.33
2019-02-23T20:27:31.003Z,16.87
2019-02-23T20:30:00.100Z,18.03
2019-02-23T20:32:29.196Z,24.23
2019-02-23T20:34:58.816Z,24.90
2019-02-23T20:37:29.717Z,19.33
2019-02-23T20:40:15.105Z,17.53
2019-02-23T20:43:00.464Z,17.73
2019-02-23T20:45:26.351Z,18.63
2019-02-23T20:47:55.828Z,17.10
2019-02-23T20:50:25.003Z,17.90
2019-02-23T20:52:54.481Z,17.80
2019-02-23T20:55:24.014Z,17.70
2019-02-23T20:57:53.386Z,18.20
2019-02-23T21:00:26.765Z,17.83
2019-02-23T21:02:56.612Z,17.30
2019-02-23T21:05:31.836Z,16.73
2019-02-23T21:08:15.964Z,18.23
2019-02-23T21:10:51.853Z,18.23
2019-02-23T21:13:24.416Z,18.70
2019-02-23T21:15:53.790Z,18.63
2019-02-23T21:18:33.220Z,19.50
2019-02-23T21:44:50.371Z,17.40
2019-02-23T21:47:46.256Z,17.70
2019-02-23T21:50:31.360Z,17.73
2019-02-23T21:59:09.569Z,19.17
2019-02-23T22:01:51.036Z,17.47
2019-02-23T22:04:26.433Z,17.30
2019-02-23T22:07:03.420Z,17.20
2019-02-23T22:09:36.701Z,17.80
2019-02-23T22:12:11.717Z,18.27
2019-02-23T22:14:47.717Z,17.67
2019-02-23T22:17:29.746Z,17.13
2019-02-23T22:20:46.918Z,16.67
2019-02-23T22:26:44.592Z,19.20
2019-02-23T22:29:46.347Z,18.23
2019-02-23T22:32:20.497Z,18.47
2019-02-23T22:35:01.244Z,18.37
2019-02-23T22:40:24.331Z,17.67
2019-02-23T22:43:01.849Z,18.27
2019-02-23T22:45:43.481Z,16.80
2019-02-23T22:48:29.194Z,16.93
2019-02-23T22:55:11.980Z,17.53
2019-02-23T22:57:52.276Z,17.00
2019-02-23T23:08:47.449Z,17.17
2019-02-23T23:12:10.527Z,16.87
2019-02-23T23:17:18.918Z,18.03
2019-02-23T23:20:05.166Z,17.17
2019-02-23T23:22:46.962Z,16.40
2019-02-23T23:25:21.228Z,16.63
2019-02-23T23:27:51.558Z,17.00
2019-02-23T23:31:21.073Z,16.67
2019-02-23T23:34:14.719Z,16.87
2019-02-23T23:37:02.707Z,16.70
2019-02-23T23:40:22.370Z,15.80
2019-02-23T23:42:27.310Z,16.73
2019-02-23T23:56:09.248Z,16.37
2019-02-23T23:59:00.942Z,16.37
